Time;durP1;ratioP1;P1;durP2;ratioP2;P2;SDS_P1;SDS_P2;PMS_P1;PMS_P2;Temp;Humidity;BMP_temperature;BMP_pressure;BME280_temperature;BME280_humidity;BME280_pressure;Samples;Min_cycle;Max_cycle;Signal;HPM_P1;HPM_P2
2021/08/18 00:02:26;;;;;;;;;;;19.80;64.00;;;;;;20820576;28;19917;-78
2021/08/18 00:12:27;;;;;;;;;;;19.90;64.00;;;;;;20807313;28;20370;-79
2021/08/18 00:22:29;;;;;;;;;;;19.70;63.90;;;;;;20800984;28;19929;-79
2021/08/18 00:32:30;;;;;;;;;;;19.80;64.00;;;;;;20834022;28;20331;-79
2021/08/18 00:42:33;;;;;;;;;;;19.80;64.00;;;;;;20800281;28;19945;-78
2021/08/18 00:52:34;;;;;;;;;;;19.70;63.90;;;;;;20816239;28;19913;-79
2021/08/18 01:02:36;;;;;;;;;;;19.80;64.00;;;;;;20798991;28;20374;-79
2021/08/18 01:12:38;;;;;;;;;;;19.70;64.00;;;;;;20831621;28;19915;-78
2021/08/18 01:22:39;;;;;;;;;;;19.70;64.10;;;;;;20828814;28;19917;-79
2021/08/18 01:32:40;;;;;;;;;;;19.70;64.10;;;;;;20812995;28;19921;-79
2021/08/18 01:42:41;;;;;;;;;;;19.70;64.10;;;;;;20796558;28;19935;-79
2021/08/18 01:52:43;;;;;;;;;;;19.70;64.10;;;;;;20829018;28;19913;-79
2021/08/18 02:02:43;;;;;;;;;;;19.70;64.10;;;;;;20827221;28;19912;-79
2021/08/18 02:12:45;;;;;;;;;;;19.70;64.20;;;;;;20810005;28;19920;-79
2021/08/18 02:22:45;;;;;;;;;;;19.70;64.20;;;;;;20792947;28;19921;-79
2021/08/18 02:32:46;;;;;;;;;;;19.70;64.30;;;;;;20791866;28;19919;-79
2021/08/18 02:42:47;;;;;;;;;;;19.70;64.30;;;;;;20825151;28;19964;-78
2021/08/18 02:52:49;;;;;;;;;;;19.70;64.40;;;;;;20807768;28;19924;-79
2021/08/18 03:02:51;;;;;;;;;;;19.60;64.30;;;;;;20823246;28;20351;-80
2021/08/18 03:12:52;;;;;;;;;;;19.70;64.40;;;;;;20806719;28;20305;-79
2021/08/18 03:22:53;;;;;;;;;;;19.60;64.40;;;;;;20806115;28;20036;-79
2021/08/18 03:32:54;;;;;;;;;;;19.60;64.50;;;;;;20824932;28;19917;-79
2021/08/18 03:42:55;;;;;;;;;;;19.60;64.50;;;;;;20805190;28;19923;-79
2021/08/18 03:52:55;;;;;;;;;;;19.60;64.60;;;;;;20800537;28;20016;-79
2021/08/18 04:02:57;;;;;;;;;;;19.80;64.70;;;;;;20836794;28;19924;-78
2021/08/18 04:12:58;;;;;;;;;;;19.60;64.60;;;;;;20819771;28;19909;-79
2021/08/18 04:23:02;;;;;;;;;;;19.60;64.60;;;;;;20819178;28;19924;-79
2021/08/18 04:33:05;;;;;;;;;;;19.60;64.70;;;;;;20818405;28;19913;-79
2021/08/18 04:43:05;;;;;;;;;;;19.60;64.70;;;;;;20817044;28;20275;-80
2021/08/18 04:53:07;;;;;;;;;;;19.60;64.70;;;;;;20816477;28;19913;-79
2021/08/18 05:03:10;;;;;;;;;;;19.60;64.80;;;;;;20799051;28;19921;-79
2021/08/18 05:13:11;;;;;;;;;;;19.60;64.80;;;;;;20831110;28;20406;-78
2021/08/18 05:23:12;;;;;;;;;;;19.50;64.80;;;;;;20830263;28;19959;-78
2021/08/18 05:33:13;;;;;;;;;;;19.50;64.90;;;;;;20813100;28;19948;-78
2021/08/18 05:43:13;;;;;;;;;;;19.50;64.90;;;;;;20829033;28;19916;-79
2021/08/18 05:53:18;;;;;;;;;;;19.50;65.00;;;;;;20828508;28;19924;-78
2021/08/18 06:03:18;;;;;;;;;;;19.50;65.00;;;;;;20795240;28;19956;-77
2021/08/18 06:13:22;;;;;;;;;;;19.50;65.00;;;;;;20793489;28;19916;-77
2021/08/18 06:23:25;;;;;;;;;;;19.50;65.10;;;;;;20809592;28;19913;-78
2021/08/18 06:33:25;;;;;;;;;;;19.50;65.10;;;;;;20808946;28;19913;-78
2021/08/18 06:43:26;;;;;;;;;;;19.50;65.20;;;;;;20824918;28;19919;-78
2021/08/18 06:53:27;;;;;;;;;;;19.50;65.20;;;;;;20825036;28;19917;-78
2021/08/18 07:03:27;;;;;;;;;;;19.50;65.20;;;;;;20823347;28;19920;-79
2021/08/18 07:13:28;;;;;;;;;;;19.50;65.30;;;;;;20789868;28;19931;-78
2021/08/18 07:23:28;;;;;;;;;;;19.50;65.30;;;;;;20795388;28;19927;-78
2021/08/18 07:33:29;;;;;;;;;;;19.50;65.30;;;;;;20822260;28;20338;-79
2021/08/18 07:43:31;;;;;;;;;;;19.60;65.30;;;;;;20821628;28;19979;-78
2021/08/18 07:53:32;;;;;;;;;;;19.60;65.20;;;;;;20837352;28;19916;-78
2021/08/18 08:03:34;;;;;;;;;;;19.50;65.20;;;;;;20820196;28;20546;-78
2021/08/18 08:13:34;;;;;;;;;;;19.60;65.30;;;;;;20819184;28;20011;-78
2021/08/18 08:23:35;;;;;;;;;;;19.60;65.30;;;;;;20818883;28;20365;-78
2021/08/18 08:33:35;;;;;;;;;;;19.60;65.30;;;;;;20801078;28;19909;-78
2021/08/18 08:43:37;;;;;;;;;;;19.60;65.30;;;;;;20801162;28;19916;-78
2021/08/18 08:53:37;;;;;;;;;;;19.60;65.20;;;;;;20832866;28;20359;-78
2021/08/18 09:03:40;;;;;;;;;;;19.60;65.30;;;;;;20831649;28;19924;-78
2021/08/18 09:13:42;;;;;;;;;;;19.60;65.30;;;;;;20799580;28;19909;-79
2021/08/18 09:23:42;;;;;;;;;;;19.60;65.30;;;;;;20830743;28;19986;-78
2021/08/18 09:33:43;;;;;;;;;;;19.60;65.40;;;;;;20796927;28;19909;-78
2021/08/18 09:43:43;;;;;;;;;;;19.50;65.60;;;;;;20811382;28;20357;-79
2021/08/18 09:53:44;;;;;;;;;;;19.60;65.80;;;;;;20811723;28;20002;-78
2021/08/18 10:03:47;;;;;;;;;;;19.40;65.90;;;;;;21182719;22;19931;-78
2021/08/18 10:13:48;;;;;;;;;;;19.50;66.10;;;;;;20815960;28;19909;-77
2021/08/18 10:23:58;;;;;;;;;;;19.50;66.20;;;;;;20808577;28;19931;-77
2021/08/18 10:33:58;;;;;;;;;;;19.60;66.40;;;;;;20810450;28;19916;-80
2021/08/18 10:43:59;;;;;;;;;;;19.50;66.60;;;;;;20827524;28;19917;-78
2021/08/18 10:54:11;;;;;;;;;;;19.60;66.80;;;;;;20793344;28;19913;-77
2021/08/18 11:04:31;;;;;;;;;;;19.50;66.80;;;;;;20807545;28;20278;-80
2021/08/18 11:14:36;;;;;;;;;;;19.50;67.00;;;;;;20806897;28;20050;-78
2021/08/18 11:24:36;;;;;;;;;;;19.60;67.10;;;;;;20789189;28;19924;-78
2021/08/18 11:34:39;;;;;;;;;;;19.70;67.10;;;;;;20791268;28;19909;-83
2021/08/18 11:44:41;;;;;;;;;;;19.60;67.10;;;;;;20790998;28;19921;-78
2021/08/18 11:54:50;;;;;;;;;;;19.60;67.20;;;;;;20806109;28;19920;-75
2021/08/18 12:04:53;;;;;;;;;;;19.70;67.40;;;;;;20789695;28;20007;-80
2021/08/18 12:14:54;;;;;;;;;;;19.60;67.40;;;;;;20806688;28;20475;-77
2021/08/18 12:25:08;;;;;;;;;;;19.60;67.40;;;;;;20802962;28;19917;-80
2021/08/18 12:35:10;;;;;;;;;;;19.60;67.90;;;;;;20801374;28;19916;-78
2021/08/18 12:45:12;;;;;;;;;;;19.60;67.20;;;;;;20816064;28;19917;-76
2021/08/18 12:55:13;;;;;;;;;;;19.60;67.40;;;;;;20832540;28;19912;-78
2021/08/18 13:05:14;;;;;;;;;;;19.70;67.50;;;;;;20728542;28;20387;-79
2021/08/18 13:15:14;;;;;;;;;;;19.70;67.70;;;;;;20719584;28;19916;-82
2021/08/18 13:25:15;;;;;;;;;;;19.70;67.80;;;;;;20715726;28;19975;-81
2021/08/18 13:35:15;;;;;;;;;;;19.70;67.90;;;;;;20715425;28;20016;-78
2021/08/18 13:45:17;;;;;;;;;;;19.70;67.90;;;;;;20713628;28;19960;-79
2021/08/18 13:55:17;;;;;;;;;;;19.70;67.70;;;;;;20733620;28;19909;-79
2021/08/18 14:05:18;;;;;;;;;;;19.70;67.60;;;;;;20733828;28;19983;-79
2021/08/18 14:15:20;;;;;;;;;;;19.70;67.60;;;;;;20718537;28;19924;-77
2021/08/18 14:25:22;;;;;;;;;;;19.70;67.50;;;;;;20702044;28;20007;-81
2021/08/18 14:35:23;;;;;;;;;;;19.70;67.50;;;;;;20717365;28;19948;-78
2021/08/18 14:45:26;;;;;;;;;;;19.70;67.30;;;;;;20700155;28;19918;-81
2021/08/18 14:55:27;;;;;;;;;;;19.80;67.30;;;;;;20712668;28;20360;-78
2021/08/18 15:05:28;;;;;;;;;;;19.80;67.40;;;;;;20728734;28;19925;-80
2021/08/18 15:15:28;;;;;;;;;;;19.80;67.40;;;;;;20728475;28;20364;-79
2021/08/18 15:25:30;;;;;;;;;;;19.80;67.40;;;;;;20711460;28;19979;-80
2021/08/18 15:35:32;;;;;;;;;;;19.70;67.50;;;;;;20711672;28;19909;-76
2021/08/18 15:45:32;;;;;;;;;;;19.80;67.60;;;;;;20718431;28;20349;-80
2021/08/18 15:55:33;;;;;;;;;;;19.80;67.60;;;;;;20729034;28;19916;-77
2021/08/18 16:05:34;;;;;;;;;;;19.80;67.50;;;;;;20726329;28;20288;-80
2021/08/18 16:15:34;;;;;;;;;;;19.90;67.50;;;;;;20755225;28;19920;-78
2021/08/18 16:25:35;;;;;;;;;;;19.80;67.30;;;;;;20804079;28;19913;-79
2021/08/18 16:35:36;;;;;;;;;;;19.80;67.20;;;;;;20806523;28;20287;-78
2021/08/18 16:45:36;;;;;;;;;;;19.80;67.20;;;;;;20801928;28;19920;-79
2021/08/18 16:55:37;;;;;;;;;;;19.80;67.20;;;;;;20816934;28;19935;-79
2021/08/18 17:05:38;;;;;;;;;;;19.80;67.20;;;;;;20803926;28;19917;-80
2021/08/18 17:15:38;;;;;;;;;;;19.80;67.20;;;;;;20803086;28;19909;-79
2021/08/18 17:25:40;;;;;;;;;;;19.90;67.20;;;;;;20800970;28;19959;-81
2021/08/18 17:35:41;;;;;;;;;;;19.80;67.10;;;;;;20804440;28;20000;-80
2021/08/18 17:45:47;;;;;;;;;;;19.80;67.10;;;;;;20803574;28;20393;-81
2021/08/18 17:55:48;;;;;;;;;;;19.80;67.00;;;;;;20835641;28;19920;-81
2021/08/18 18:05:49;;;;;;;;;;;19.80;67.00;;;;;;20800810;28;19928;-81
2021/08/18 18:15:50;;;;;;;;;;;19.80;67.00;;;;;;20801093;28;20346;-80
2021/08/18 18:25:50;;;;;;;;;;;19.60;66.80;;;;;;20799037;28;19923;-77
2021/08/18 18:35:51;;;;;;;;;;;19.70;66.80;;;;;;20811616;28;20120;-74
2021/08/18 18:45:52;;;;;;;;;;;19.80;66.80;;;;;;20793571;28;19974;-80
2021/08/18 18:55:52;;;;;;;;;;;19.80;66.70;;;;;;20791737;28;19920;-78
2021/08/18 19:05:53;;;;;;;;;;;19.80;66.60;;;;;;20775408;28;20192;-80
2021/08/18 19:15:54;;;;;;;;;;;19.80;66.60;;;;;;20824039;28;19956;-80
2021/08/18 19:25:58;;;;;;;;;;;19.80;66.50;;;;;;20818596;28;19936;-78
2021/08/18 19:35:58;;;;;;;;;;;19.80;66.50;;;;;;20808296;28;19929;-77
2021/08/18 19:45:59;;;;;;;;;;;19.80;66.60;;;;;;20790691;28;19917;-79
2021/08/18 19:56:00;;;;;;;;;;;19.70;66.50;;;;;;20791698;28;19927;-78
2021/08/18 20:06:00;;;;;;;;;;;19.80;67.30;;;;;;20806201;28;20339;-78
2021/08/18 20:16:03;;;;;;;;;;;19.70;66.60;;;;;;20771754;28;19916;-76
2021/08/18 20:26:04;;;;;;;;;;;19.80;66.70;;;;;;20772930;28;19913;-76
2021/08/18 20:36:04;;;;;;;;;;;19.70;66.60;;;;;;20835992;28;20367;-77
2021/08/18 20:46:07;;;;;;;;;;;19.70;66.60;;;;;;20785829;28;19923;-79
2021/08/18 20:56:08;;;;;;;;;;;19.80;66.70;;;;;;20785441;28;19966;-76
2021/08/18 21:06:09;;;;;;;;;;;19.70;66.70;;;;;;20816672;28;20403;-76
2021/08/18 21:16:10;;;;;;;;;;;19.70;66.80;;;;;;20799821;28;20271;-76
2021/08/18 21:26:12;;;;;;;;;;;19.70;66.80;;;;;;20815738;28;19952;-77
2021/08/18 21:36:13;;;;;;;;;;;19.80;66.90;;;;;;20782739;28;19992;-76
2021/08/18 21:46:14;;;;;;;;;;;19.70;66.90;;;;;;20796998;28;19917;-78
2021/08/18 21:56:16;;;;;;;;;;;19.70;66.90;;;;;;20814616;28;20007;-77
2021/08/18 22:06:17;;;;;;;;;;;19.80;67.10;;;;;;20795719;28;20005;-77
2021/08/18 22:16:17;;;;;;;;;;;19.70;67.10;;;;;;20811495;28;19913;-77
2021/08/18 22:26:18;;;;;;;;;;;19.70;67.20;;;;;;20794495;28;19913;-77
2021/08/18 22:36:20;;;;;;;;;;;19.70;67.20;;;;;;20793476;28;19913;-76
2021/08/18 22:46:21;;;;;;;;;;;19.70;67.30;;;;;;20809990;28;20275;-77
2021/08/18 22:56:21;;;;;;;;;;;19.70;67.40;;;;;;20826214;28;19913;-77
2021/08/18 23:06:22;;;;;;;;;;;19.60;67.30;;;;;;20791948;28;20034;-77
2021/08/18 23:16:23;;;;;;;;;;;19.80;67.50;;;;;;20791935;28;19913;-78
2021/08/18 23:26:24;;;;;;;;;;;19.70;67.50;;;;;;20790618;28;19917;-76
2021/08/18 23:36:24;;;;;;;;;;;19.80;67.60;;;;;;20774226;28;19971;-76
2021/08/18 23:46:25;;;;;;;;;;;19.70;67.60;;;;;;20806409;28;19986;-76
2021/08/18 23:56:25;;;;;;;;;;;19.70;67.60;;;;;;20789441;28;19916;-76
